createdAt,value
2023-03-29T00:00:51.133Z,56.75
2023-03-29T00:03:17.624Z,57.66
2023-03-29T00:05:44.672Z,57.90
2023-03-29T00:08:14.200Z,56.84
2023-03-29T00:10:41.100Z,57.51
2023-03-29T00:13:07.433Z,57.88
2023-03-29T00:15:33.848Z,58.12
2023-03-29T00:18:00.260Z,58.07
2023-03-29T00:20:27.097Z,58.49
2023-03-29T00:22:53.456Z,58.70
2023-03-29T00:25:19.781Z,59.47
2023-03-29T00:27:46.914Z,58.83
2023-03-29T00:30:13.794Z,59.47
2023-03-29T00:32:40.739Z,59.87
2023-03-29T00:35:07.584Z,59.91
2023-03-29T00:37:34.032Z,59.45
2023-03-29T00:40:00.612Z,59.45
2023-03-29T00:42:26.966Z,59.02
2023-03-29T00:45:19.467Z,58.19
2023-03-29T00:47:51.909Z,58.03
2023-03-29T00:50:26.209Z,58.09
2023-03-29T00:52:56.886Z,58.19
2023-03-29T00:55:27.574Z,58.22
2023-03-29T00:57:55.986Z,58.09
2023-03-29T01:00:28.522Z,57.68
2023-03-29T01:02:59.585Z,57.61
2023-03-29T01:05:31.154Z,57.30
2023-03-29T01:08:03.171Z,56.68
2023-03-29T01:10:41.545Z,55.65
2023-03-29T01:13:11.702Z,54.72
2023-03-29T01:15:41.997Z,54.21
2023-03-29T01:18:09.343Z,54.02
2023-03-29T01:20:45.971Z,53.03
2023-03-29T01:23:26.816Z,53.00
2023-03-29T01:26:16.044Z,52.80
2023-03-29T01:28:52.621Z,52.17
2023-03-29T01:31:26.972Z,51.61
2023-03-29T01:34:02.242Z,52.05
2023-03-29T01:36:38.153Z,51.69
2023-03-29T01:39:06.879Z,51.57
2023-03-29T01:42:07.837Z,51.48
2023-03-29T01:44:51.870Z,51.97
2023-03-29T01:47:21.872Z,53.12
2023-03-29T01:49:57.670Z,52.60
2023-03-29T01:52:31.855Z,53.02
2023-03-29T01:55:22.152Z,53.35
2023-03-29T01:57:52.138Z,53.01
2023-03-29T02:00:22.423Z,52.95
2023-03-29T02:02:51.232Z,51.89
2023-03-29T02:05:19.622Z,52.81
2023-03-29T02:07:47.434Z,53.20
2023-03-29T02:10:16.306Z,53.26
2023-03-29T02:12:42.747Z,54.05
2023-03-29T02:15:15.307Z,53.61
2023-03-29T02:17:43.976Z,53.54
2023-03-29T02:20:20.424Z,54.31
2023-03-29T02:22:57.498Z,53.20
2023-03-29T02:25:24.540Z,52.69
2023-03-29T02:27:52.687Z,52.66
2023-03-29T02:30:20.919Z,53.03
2023-03-29T02:33:17.438Z,52.79
2023-03-29T02:35:53.245Z,52.29
2023-03-29T02:38:20.637Z,51.63
2023-03-29T02:40:47.214Z,51.33
2023-03-29T02:43:16.570Z,51.06
2023-03-29T02:45:43.963Z,50.75
2023-03-29T02:48:16.129Z,50.38
2023-03-29T02:50:46.826Z,50.20
2023-03-29T02:53:18.746Z,50.21
2023-03-29T02:55:46.775Z,51.40
2023-03-29T02:58:15.350Z,51.29
2023-03-29T03:00:45.442Z,51.26
2023-03-29T03:03:13.041Z,51.24
2023-03-29T03:05:39.549Z,51.17
2023-03-29T03:08:07.188Z,50.59
2023-03-29T03:10:35.300Z,50.23
2023-03-29T03:13:02.079Z,50.02
2023-03-29T03:15:28.463Z,50.21
2023-03-29T03:17:54.950Z,50.93
2023-03-29T03:20:23.986Z,50.92
2023-03-29T03:22:50.374Z,51.55
2023-03-29T03:25:19.371Z,51.33
2023-03-29T03:27:45.701Z,50.51
2023-03-29T03:30:12.549Z,50.70
2023-03-29T03:32:38.916Z,50.64
2023-03-29T03:35:07.393Z,51.22
2023-03-29T03:37:33.936Z,51.01
2023-03-29T03:40:00.497Z,50.52
2023-03-29T03:42:29.804Z,51.17
2023-03-29T03:44:56.458Z,51.48
2023-03-29T03:47:23.560Z,50.84
2023-03-29T03:49:51.290Z,50.89
2023-03-29T03:52:18.714Z,50.76
2023-03-29T03:54:46.572Z,50.80
2023-03-29T03:57:12.934Z,50.46
2023-03-29T03:59:39.488Z,50.59
2023-03-29T04:02:06.601Z,50.99
2023-03-29T04:04:33.006Z,50.63
2023-03-29T04:07:02.718Z,50.61
2023-03-29T04:09:33.312Z,50.54
2023-03-29T04:12:01.459Z,50.46
2023-03-29T04:14:28.280Z,50.72
2023-03-29T04:16:55.115Z,50.75
2023-03-29T04:19:21.990Z,50.33
2023-03-29T04:21:49.509Z,50.99
2023-03-29T04:24:17.133Z,51.49
2023-03-29T04:26:43.946Z,51.67
2023-03-29T04:29:10.429Z,51.72
2023-03-29T04:31:37.216Z,51.78
2023-03-29T04:34:03.678Z,51.52
2023-03-29T04:36:30.009Z,51.33
2023-03-29T04:38:56.568Z,51.49
2023-03-29T04:41:23.593Z,51.34
2023-03-29T04:43:50.004Z,51.15
2023-03-29T04:46:16.855Z,50.89
2023-03-29T04:48:43.426Z,51.17
2023-03-29T04:51:09.920Z,50.01
2023-03-29T04:53:36.658Z,50.88
2023-03-29T04:56:03.136Z,51.07
2023-03-29T04:58:32.197Z,50.81
2023-03-29T05:00:59.138Z,50.80
2023-03-29T05:03:26.290Z,50.66
2023-03-29T05:05:53.286Z,50.15
2023-03-29T05:08:19.608Z,49.48
2023-03-29T05:10:46.194Z,49.90
2023-03-29T05:13:12.533Z,49.94
2023-03-29T05:15:41.157Z,49.63
2023-03-29T05:18:07.998Z,49.00
2023-03-29T05:20:34.352Z,48.40
2023-03-29T05:23:01.300Z,48.62
2023-03-29T05:25:27.716Z,48.79
2023-03-29T05:27:54.081Z,48.75
2023-03-29T05:30:20.512Z,48.91
2023-03-29T05:32:46.929Z,48.53
2023-03-29T05:35:13.498Z,48.66
2023-03-29T05:37:39.823Z,48.99
2023-03-29T05:40:08.301Z,49.02
2023-03-29T05:42:34.748Z,49.36
2023-03-29T05:45:01.264Z,49.22
2023-03-29T05:47:28.377Z,49.49
2023-03-29T05:49:54.873Z,49.01
2023-03-29T05:52:21.269Z,48.71
2023-03-29T05:54:47.631Z,48.46
2023-03-29T05:57:14.003Z,47.90
2023-03-29T05:59:40.398Z,48.08
2023-03-29T06:02:07.179Z,48.10
2023-03-29T06:04:33.759Z,47.21
2023-03-29T06:07:01.994Z,47.99
2023-03-29T06:09:28.552Z,47.68
2023-03-29T06:11:56.328Z,47.96
2023-03-29T06:14:24.375Z,48.40
2023-03-29T06:16:51.254Z,47.86
2023-03-29T06:19:18.640Z,48.31
2023-03-29T06:21:44.954Z,48.59
2023-03-29T06:24:11.359Z,48.52
2023-03-29T06:26:37.684Z,48.26
2023-03-29T06:29:04.314Z,48.52
2023-03-29T06:31:31.186Z,48.56
2023-03-29T06:33:58.184Z,48.40
2023-03-29T06:36:24.564Z,48.07
2023-03-29T06:38:50.885Z,47.90
2023-03-29T06:41:17.213Z,47.67
2023-03-29T06:43:43.580Z,48.03
2023-03-29T06:46:12.047Z,48.17
2023-03-29T06:48:39.538Z,47.92
2023-03-29T06:51:07.453Z,48.35
2023-03-29T06:53:34.665Z,47.77
2023-03-29T06:56:05.182Z,47.98
2023-03-29T06:58:31.508Z,48.05
2023-03-29T07:01:04.883Z,48.09
2023-03-29T07:03:33.805Z,47.61
2023-03-29T07:06:04.136Z,47.68
2023-03-29T07:08:31.533Z,47.28
2023-03-29T07:10:59.060Z,46.43
2023-03-29T07:13:26.200Z,46.54
2023-03-29T07:15:52.588Z,46.69
2023-03-29T07:18:18.985Z,46.51
2023-03-29T07:20:47.453Z,47.21
2023-03-29T07:23:14.168Z,47.40
2023-03-29T07:25:40.994Z,46.92
2023-03-29T07:28:07.814Z,47.04
2023-03-29T07:30:40.706Z,46.91
2023-03-29T07:33:07.150Z,47.39
2023-03-29T07:35:33.670Z,46.88
2023-03-29T07:38:00.140Z,47.45
2023-03-29T07:40:27.161Z,47.61
2023-03-29T07:42:56.381Z,47.97
2023-03-29T07:45:26.879Z,48.17
2023-03-29T07:47:57.258Z,47.66
2023-03-29T07:50:24.574Z,47.70
2023-03-29T07:52:50.964Z,47.62
2023-03-29T07:55:17.662Z,47.44
2023-03-29T07:57:44.386Z,47.80
2023-03-29T08:00:15.845Z,48.86
2023-03-29T08:02:43.877Z,48.65
2023-03-29T08:05:12.634Z,49.39
2023-03-29T08:07:41.235Z,49.49
2023-03-29T08:10:09.637Z,50.12
2023-03-29T08:12:37.123Z,50.07
2023-03-29T08:15:05.272Z,49.89
2023-03-29T08:17:32.618Z,49.62
2023-03-29T08:19:58.995Z,49.13
2023-03-29T08:22:25.326Z,49.18
2023-03-29T08:24:51.781Z,48.74
2023-03-29T08:27:18.283Z,49.15
2023-03-29T08:29:44.825Z,49.52
2023-03-29T08:32:11.421Z,49.49
2023-03-29T08:34:38.428Z,48.92
2023-03-29T08:37:04.926Z,49.54
2023-03-29T08:39:31.660Z,49.46
2023-03-29T08:42:08.789Z,50.63
2023-03-29T08:44:41.621Z,49.71
2023-03-29T08:47:45.883Z,50.38
2023-03-29T08:50:14.048Z,49.29
2023-03-29T08:52:46.611Z,47.63
2023-03-29T08:55:33.313Z,46.03
2023-03-29T08:58:02.279Z,46.01
2023-03-29T09:00:38.939Z,46.09
2023-03-29T09:03:22.104Z,45.67
2023-03-29T09:05:54.563Z,45.48
2023-03-29T09:08:22.272Z,45.95
2023-03-29T09:11:06.657Z,45.42
2023-03-29T09:14:00.990Z,45.21
2023-03-29T09:16:37.604Z,45.40
2023-03-29T09:19:42.229Z,45.61
2023-03-29T09:22:32.712Z,44.84
2023-03-29T09:25:11.086Z,44.68
2023-03-29T09:27:58.088Z,45.06
2023-03-29T09:30:41.910Z,45.32
2023-03-29T09:33:58.541Z,45.38
2023-03-29T09:36:53.899Z,46.03
2023-03-29T09:39:22.113Z,45.44
2023-03-29T09:41:53.612Z,45.11
2023-03-29T09:44:30.844Z,45.50
2023-03-29T09:47:06.092Z,45.19
2023-03-29T09:49:38.045Z,45.23
2023-03-29T09:52:11.491Z,45.03
2023-03-29T09:54:37.843Z,45.98
2023-03-29T09:57:04.364Z,45.56
2023-03-29T09:59:30.983Z,45.32
2023-03-29T10:02:13.420Z,44.61
2023-03-29T10:04:42.455Z,45.45
2023-03-29T10:07:16.036Z,45.56
2023-03-29T10:09:45.363Z,45.22
2023-03-29T10:12:13.638Z,45.21
2023-03-29T10:14:46.413Z,45.30
2023-03-29T10:17:21.732Z,45.15
2023-03-29T10:19:51.023Z,44.75
2023-03-29T10:22:27.017Z,45.27
2023-03-29T10:24:57.042Z,44.94
2023-03-29T10:27:36.046Z,44.48
2023-03-29T10:30:18.712Z,44.70
2023-03-29T10:32:45.295Z,43.64
2023-03-29T10:35:21.472Z,44.38
2023-03-29T10:37:53.104Z,44.25
2023-03-29T10:40:32.058Z,44.25
2023-03-29T10:43:00.734Z,43.25
2023-03-29T10:45:31.141Z,43.53
2023-03-29T10:47:59.100Z,43.66
2023-03-29T10:50:33.342Z,43.06
2023-03-29T10:53:00.870Z,43.09
2023-03-29T10:55:35.164Z,42.22
2023-03-29T10:58:28.420Z,42.81
2023-03-29T11:00:56.986Z,42.74
2023-03-29T11:03:45.622Z,42.16
2023-03-29T11:06:20.821Z,42.73
2023-03-29T11:09:06.691Z,42.38
2023-03-29T11:12:12.226Z,42.23
2023-03-29T11:14:58.563Z,42.70
2023-03-29T11:17:45.641Z,42.66
2023-03-29T11:20:31.769Z,43.53
2023-03-29T11:23:32.400Z,43.71
2023-03-29T11:26:10.527Z,44.18
2023-03-29T11:28:58.877Z,44.55
2023-03-29T11:31:43.411Z,44.92
2023-03-29T11:34:25.230Z,44.06
2023-03-29T11:37:01.552Z,44.56
2023-03-29T11:39:47.618Z,44.12
2023-03-29T11:42:33.093Z,43.99
2023-03-29T11:45:02.261Z,43.14
2023-03-29T11:47:37.139Z,42.71
2023-03-29T11:50:14.752Z,41.17
2023-03-29T11:52:47.978Z,40.97
2023-03-29T11:55:19.179Z,39.55
2023-03-29T11:58:16.667Z,38.77
2023-03-29T12:00:51.828Z,39.13
2023-03-29T12:03:32.157Z,38.79
2023-03-29T12:06:06.552Z,38.87
2023-03-29T12:08:41.481Z,39.33
2023-03-29T12:11:16.506Z,39.81
2023-03-29T12:13:48.209Z,40.20
2023-03-29T12:16:26.361Z,40.12
2023-03-29T12:18:59.129Z,39.15
2023-03-29T12:21:28.810Z,38.69
2023-03-29T12:23:55.392Z,39.02
2023-03-29T12:26:46.721Z,38.73
2023-03-29T12:29:30.585Z,38.83
2023-03-29T12:32:24.782Z,38.83
2023-03-29T12:35:30.085Z,37.80
2023-03-29T12:38:15.256Z,38.96
2023-03-29T12:40:44.147Z,39.35
2023-03-29T12:43:28.705Z,39.40
2023-03-29T12:46:01.705Z,39.20
2023-03-29T12:48:30.110Z,39.59
2023-03-29T12:51:01.688Z,39.52
2023-03-29T12:53:44.549Z,39.89
2023-03-29T12:56:15.289Z,39.87
2023-03-29T12:58:51.431Z,39.65
2023-03-29T13:01:27.585Z,39.37
2023-03-29T13:04:12.105Z,39.13
2023-03-29T13:07:06.966Z,39.35
2023-03-29T13:09:46.877Z,38.88
2023-03-29T13:12:16.196Z,38.06
2023-03-29T13:14:46.185Z,38.35
2023-03-29T13:17:39.828Z,37.99
2023-03-29T13:20:31.200Z,37.48
2023-03-29T13:23:17.622Z,37.77
2023-03-29T13:26:02.788Z,37.89
2023-03-29T13:28:43.067Z,38.50
2023-03-29T13:31:27.952Z,38.46
2023-03-29T13:34:06.928Z,37.85
2023-03-29T13:36:52.128Z,38.44
2023-03-29T13:39:22.907Z,37.51
2023-03-29T13:41:52.886Z,37.85
2023-03-29T13:44:22.550Z,37.84
2023-03-29T13:47:00.801Z,37.82
2023-03-29T13:49:30.923Z,35.35
2023-03-29T13:52:12.375Z,36.25
2023-03-29T13:54:42.604Z,35.54
2023-03-29T13:57:15.337Z,36.35
2023-03-29T13:59:44.925Z,36.21
2023-03-29T14:02:41.801Z,35.05
2023-03-29T14:05:12.773Z,34.70
2023-03-29T14:07:45.382Z,35.29
2023-03-29T14:10:16.063Z,34.71
2023-03-29T14:12:42.630Z,34.50
2023-03-29T14:15:20.656Z,35.11
2023-03-29T14:17:47.963Z,35.94
2023-03-29T14:20:15.479Z,35.85
2023-03-29T14:22:43.126Z,35.71
2023-03-29T14:25:16.090Z,36.23
2023-03-29T14:27:42.717Z,36.22
2023-03-29T14:30:28.879Z,36.87
2023-03-29T14:32:56.460Z,36.40
2023-03-29T14:35:30.112Z,36.06
2023-03-29T14:37:57.070Z,36.01
2023-03-29T14:40:24.313Z,36.17
2023-03-29T14:42:51.084Z,35.44
2023-03-29T14:45:20.779Z,35.24
2023-03-29T14:47:47.605Z,35.27
2023-03-29T14:50:29.353Z,35.41
2023-03-29T14:52:58.523Z,35.46
2023-03-29T14:55:25.375Z,35.63
2023-03-29T14:57:55.410Z,36.31
2023-03-29T15:00:44.286Z,35.51
2023-03-29T15:03:16.255Z,36.22
2023-03-29T15:05:48.803Z,35.72
2023-03-29T15:08:19.180Z,36.00
2023-03-29T15:10:45.721Z,36.33
2023-03-29T15:13:20.226Z,36.63
2023-03-29T15:15:48.359Z,36.77
2023-03-29T15:18:17.060Z,36.11
2023-03-29T15:20:44.946Z,36.74
2023-03-29T15:23:14.015Z,37.36
2023-03-29T15:25:50.986Z,37.50
2023-03-29T15:28:23.428Z,37.93
2023-03-29T15:31:00.844Z,37.53
2023-03-29T15:33:36.640Z,37.90
2023-03-29T15:36:05.858Z,37.42
2023-03-29T15:38:43.328Z,37.03
2023-03-29T15:41:12.194Z,37.71
2023-03-29T15:43:38.619Z,37.91
2023-03-29T15:46:05.258Z,38.35
2023-03-29T15:48:33.322Z,37.79
2023-03-29T15:51:03.747Z,38.48
2023-03-29T15:53:32.245Z,38.58
2023-03-29T15:56:03.928Z,38.62
2023-03-29T15:58:32.785Z,38.33
2023-03-29T16:01:37.176Z,38.07
2023-03-29T16:04:11.393Z,38.39
2023-03-29T16:06:38.446Z,38.88
2023-03-29T16:09:06.917Z,38.91
2023-03-29T16:11:33.349Z,39.15
2023-03-29T16:13:59.791Z,39.36
2023-03-29T16:16:27.022Z,39.61
2023-03-29T16:18:53.407Z,39.79
2023-03-29T16:21:22.171Z,40.03
2023-03-29T16:23:48.553Z,40.00
2023-03-29T16:26:16.519Z,40.23
2023-03-29T16:28:43.336Z,40.25
2023-03-29T16:31:11.928Z,40.03
2023-03-29T16:33:39.433Z,39.00
2023-03-29T16:36:06.775Z,39.66
2023-03-29T16:38:33.604Z,39.51
2023-03-29T16:41:00.388Z,39.21
2023-03-29T16:43:27.114Z,39.35
2023-03-29T16:45:53.488Z,39.40
2023-03-29T16:48:20.017Z,39.25
2023-03-29T16:50:50.138Z,39.14
2023-03-29T16:53:21.341Z,38.93
2023-03-29T16:55:48.930Z,39.09
2023-03-29T16:58:15.424Z,38.66
2023-03-29T17:00:43.051Z,39.42
2023-03-29T17:03:10.908Z,39.87
2023-03-29T17:05:41.252Z,40.00
2023-03-29T17:08:09.914Z,39.97
2023-03-29T17:10:36.429Z,40.21
2023-03-29T17:13:02.796Z,39.92
2023-03-29T17:15:29.338Z,40.45
2023-03-29T17:17:55.977Z,40.24
2023-03-29T17:20:22.353Z,40.66
2023-03-29T17:22:51.960Z,40.75
2023-03-29T17:25:18.569Z,40.83
2023-03-29T17:27:45.999Z,41.46
2023-03-29T17:30:12.757Z,41.32
2023-03-29T17:32:41.330Z,41.37
2023-03-29T17:35:10.321Z,41.24
2023-03-29T17:37:36.729Z,41.69
2023-03-29T17:40:10.410Z,42.14
2023-03-29T17:42:36.849Z,43.84
2023-03-29T17:45:03.817Z,44.70
2023-03-29T17:47:30.171Z,43.96
2023-03-29T17:49:56.512Z,44.10
2023-03-29T17:52:22.854Z,43.82
2023-03-29T17:54:49.284Z,44.21
2023-03-29T17:57:16.073Z,44.43
2023-03-29T17:59:42.577Z,44.72
2023-03-29T18:02:19.437Z,45.29
2023-03-29T18:04:46.024Z,46.06
2023-03-29T18:07:12.906Z,46.99
2023-03-29T18:09:39.392Z,48.55
2023-03-29T18:12:06.571Z,48.89
2023-03-29T18:14:33.207Z,49.69
2023-03-29T18:16:59.599Z,50.71
2023-03-29T18:19:26.683Z,51.39
2023-03-29T18:21:53.035Z,51.78
2023-03-29T18:24:19.487Z,54.81
2023-03-29T18:26:45.962Z,55.53
2023-03-29T18:29:12.459Z,56.67
2023-03-29T18:31:38.905Z,56.04
2023-03-29T18:34:05.664Z,56.49
2023-03-29T18:36:32.219Z,55.68
2023-03-29T18:39:05.256Z,56.46
2023-03-29T18:41:37.089Z,56.28
2023-03-29T18:44:04.254Z,57.18
2023-03-29T18:46:31.602Z,56.95
2023-03-29T18:48:59.046Z,58.08
2023-03-29T18:51:29.132Z,57.77
2023-03-29T18:53:55.852Z,58.36
2023-03-29T18:56:23.109Z,58.56
2023-03-29T18:58:49.615Z,59.19
2023-03-29T19:01:16.148Z,59.42
2023-03-29T19:03:42.662Z,59.92
2023-03-29T19:06:09.125Z,60.97
2023-03-29T19:08:38.584Z,60.68
2023-03-29T19:11:07.596Z,60.36
2023-03-29T19:13:34.634Z,60.00
2023-03-29T19:16:01.483Z,58.88
2023-03-29T19:18:28.160Z,58.61
2023-03-29T19:20:54.695Z,58.05
2023-03-29T19:23:22.668Z,57.77
2023-03-29T19:25:53.317Z,58.12
2023-03-29T19:28:20.131Z,58.55
2023-03-29T19:30:46.634Z,58.42
2023-03-29T19:33:14.423Z,58.90
2023-03-29T19:35:41.250Z,58.61
2023-03-29T19:38:08.012Z,59.24
2023-03-29T19:40:34.892Z,58.19
2023-03-29T19:43:01.255Z,58.57
2023-03-29T19:45:27.812Z,58.78
2023-03-29T19:47:55.637Z,59.80
2023-03-29T19:50:23.246Z,59.68
2023-03-29T19:52:49.750Z,60.35
2023-03-29T19:55:16.371Z,60.13
2023-03-29T19:57:43.263Z,60.51
2023-03-29T20:00:14.782Z,61.11
2023-03-29T20:02:42.362Z,61.34
2023-03-29T20:05:09.173Z,61.40
2023-03-29T20:07:35.796Z,61.93
2023-03-29T20:10:02.306Z,62.43
2023-03-29T20:12:28.812Z,63.37
2023-03-29T20:14:55.363Z,63.68
2023-03-29T20:17:22.144Z,63.50
2023-03-29T20:19:48.593Z,64.14
2023-03-29T20:22:14.964Z,64.54
2023-03-29T20:24:42.120Z,64.70
2023-03-29T20:27:08.529Z,64.92
2023-03-29T20:29:35.437Z,64.52
2023-03-29T20:32:01.978Z,64.75
2023-03-29T20:34:28.441Z,64.62
2023-03-29T20:36:55.247Z,64.39
2023-03-29T20:39:25.711Z,64.50
2023-03-29T20:41:52.333Z,64.49
2023-03-29T20:44:18.808Z,64.82
2023-03-29T20:47:02.222Z,65.16
2023-03-29T20:49:39.696Z,65.38
2023-03-29T20:52:10.505Z,65.40
2023-03-29T20:54:37.064Z,64.71
2023-03-29T20:57:07.565Z,65.05
2023-03-29T20:59:38.030Z,64.46
2023-03-29T21:02:04.673Z,64.43
2023-03-29T21:04:31.234Z,64.50
2023-03-29T21:07:00.382Z,64.51
2023-03-29T21:09:28.176Z,64.52
2023-03-29T21:11:54.529Z,65.18
2023-03-29T21:14:21.169Z,64.66
2023-03-29T21:16:48.815Z,65.11
2023-03-29T21:19:16.550Z,65.00
2023-03-29T21:21:44.706Z,65.35
2023-03-29T21:24:13.400Z,64.85
2023-03-29T21:26:41.154Z,64.61
2023-03-29T21:29:07.945Z,63.75
2023-03-29T21:31:34.449Z,63.77
2023-03-29T21:34:00.823Z,63.56
2023-03-29T21:36:27.217Z,63.53
2023-03-29T21:38:53.640Z,63.96
2023-03-29T21:41:20.377Z,62.90
2023-03-29T21:43:46.771Z,62.16
2023-03-29T21:46:13.358Z,63.33
2023-03-29T21:48:41.638Z,63.50
2023-03-29T21:51:08.619Z,62.84
2023-03-29T21:53:35.081Z,62.07
2023-03-29T21:56:01.496Z,62.83
2023-03-29T21:58:27.869Z,63.23
2023-03-29T22:00:56.127Z,64.16
2023-03-29T22:03:22.987Z,63.87
2023-03-29T22:06:01.034Z,64.55
2023-03-29T22:08:27.513Z,64.59
2023-03-29T22:10:55.404Z,64.43
2023-03-29T22:13:26.588Z,63.58
2023-03-29T22:16:01.258Z,64.01
2023-03-29T22:18:29.983Z,63.98
2023-03-29T22:20:57.065Z,64.81
2023-03-29T22:23:24.748Z,64.33
2023-03-29T22:25:51.236Z,64.45
2023-03-29T22:28:17.618Z,64.56
2023-03-29T22:30:44.154Z,64.88
2023-03-29T22:33:11.086Z,64.91
2023-03-29T22:35:37.528Z,64.69
2023-03-29T22:38:03.998Z,64.55
2023-03-29T22:40:33.149Z,63.65
2023-03-29T22:43:00.068Z,63.95
2023-03-29T22:45:26.443Z,64.38
2023-03-29T22:47:52.877Z,64.69
2023-03-29T22:50:19.489Z,64.32
2023-03-29T22:52:45.908Z,63.68
2023-03-29T22:55:12.304Z,64.69
2023-03-29T22:57:38.625Z,64.94
2023-03-29T23:00:08.893Z,64.48
2023-03-29T23:02:36.565Z,65.06
2023-03-29T23:05:02.954Z,64.71
2023-03-29T23:07:29.411Z,64.73
2023-03-29T23:09:56.380Z,64.30
2023-03-29T23:12:24.034Z,64.24
2023-03-29T23:14:52.932Z,63.89
2023-03-29T23:17:19.356Z,63.51
2023-03-29T23:19:45.883Z,63.95
2023-03-29T23:22:12.234Z,64.13
2023-03-29T23:24:38.573Z,63.77
2023-03-29T23:27:05.608Z,64.68
2023-03-29T23:29:31.981Z,63.95
2023-03-29T23:31:59.404Z,64.27
2023-03-29T23:34:25.908Z,64.71
2023-03-29T23:36:52.345Z,64.72
2023-03-29T23:39:18.947Z,64.73
2023-03-29T23:41:45.494Z,64.37
2023-03-29T23:44:11.854Z,64.45
2023-03-29T23:46:38.310Z,64.30
2023-03-29T23:49:04.853Z,63.69
2023-03-29T23:51:31.239Z,63.74
2023-03-29T23:53:57.680Z,64.27
2023-03-29T23:56:24.196Z,64.61
2023-03-29T23:58:50.823Z,65.53
